sensor_id;sensor_type;location;lat;lon;timestamp;temperature;humidity
20698;DHT22;10508;50.956;4.640;2022-08-19T00:01:34;19.00;99.90
20698;DHT22;10508;50.956;4.640;2022-08-19T00:04:02;19.00;99.90
20698;DHT22;10508;50.956;4.640;2022-08-19T00:06:29;18.90;99.90
20698;DHT22;10508;50.956;4.640;2022-08-19T00:08:55;18.80;99.90
20698;DHT22;10508;50.956;4.640;2022-08-19T00:11:22;18.60;99.90
20698;DHT22;10508;50.956;4.640;2022-08-19T00:13:49;18.60;99.90
20698;DHT22;10508;50.956;4.640;2022-08-19T00:16:16;18.70;99.90
20698;DHT22;10508;50.956;4.640;2022-08-19T00:18:44;18.70;99.90
20698;DHT22;10508;50.956;4.640;2022-08-19T00:21:10;18.60;99.90
20698;DHT22;10508;50.956;4.640;2022-08-19T00:23:37;18.50;99.90
20698;DHT22;10508;50.956;4.640;2022-08-19T00:26:03;18.60;99.90
20698;DHT22;10508;50.956;4.640;2022-08-19T00:28:29;18.60;99.90
20698;DHT22;10508;50.956;4.640;2022-08-19T00:30:55;18.50;99.90
20698;DHT22;10508;50.956;4.640;2022-08-19T00:33:21;18.70;99.90
20698;DHT22;10508;50.956;4.640;2022-08-19T00:35:47;18.60;99.90
20698;DHT22;10508;50.956;4.640;2022-08-19T00:38:13;18.60;99.90
20698;DHT22;10508;50.956;4.640;2022-08-19T00:40:38;18.60;99.90
20698;DHT22;10508;50.956;4.640;2022-08-19T00:43:11;18.60;99.90
20698;DHT22;10508;50.956;4.640;2022-08-19T00:45:40;18.70;99.90
20698;DHT22;10508;50.956;4.640;2022-08-19T00:48:09;18.60;99.90
20698;DHT22;10508;50.956;4.640;2022-08-19T00:50:35;18.40;99.90
20698;DHT22;10508;50.956;4.640;2022-08-19T00:53:02;18.50;99.90
20698;DHT22;10508;50.956;4.640;2022-08-19T00:55:31;18.50;99.90
20698;DHT22;10508;50.956;4.640;2022-08-19T00:58:08;18.40;99.90
20698;DHT22;10508;50.956;4.640;2022-08-19T01:00:35;18.40;99.90
20698;DHT22;10508;50.956;4.640;2022-08-19T01:03:08;18.40;99.90
20698;DHT22;10508;50.956;4.640;2022-08-19T01:05:34;18.40;99.90
20698;DHT22;10508;50.956;4.640;2022-08-19T01:08:02;18.30;99.90
20698;DHT22;10508;50.956;4.640;2022-08-19T01:10:31;18.40;99.90
20698;DHT22;10508;50.956;4.640;2022-08-19T01:12:59;18.30;99.90
20698;DHT22;10508;50.956;4.640;2022-08-19T01:15:31;18.30;99.90
20698;DHT22;10508;50.956;4.640;2022-08-19T01:18:04;18.20;99.90
20698;DHT22;10508;50.956;4.640;2022-08-19T01:20:30;18.10;99.90
20698;DHT22;10508;50.956;4.640;2022-08-19T01:22:58;18.20;99.90
20698;DHT22;10508;50.956;4.640;2022-08-19T01:25:46;18.30;99.90
20698;DHT22;10508;50.956;4.640;2022-08-19T01:28:30;18.30;99.90
20698;DHT22;10508;50.956;4.640;2022-08-19T01:30:55;18.20;99.90
20698;DHT22;10508;50.956;4.640;2022-08-19T01:33:21;18.30;99.90
20698;DHT22;10508;50.956;4.640;2022-08-19T01:35:47;18.30;99.90
20698;DHT22;10508;50.956;4.640;2022-08-19T01:38:25;18.30;99.90
20698;DHT22;10508;50.956;4.640;2022-08-19T01:40:52;18.40;99.90
20698;DHT22;10508;50.956;4.640;2022-08-19T01:43:18;18.30;99.90
20698;DHT22;10508;50.956;4.640;2022-08-19T01:45:45;18.20;99.90
20698;DHT22;10508;50.956;4.640;2022-08-19T01:48:11;18.20;99.90
20698;DHT22;10508;50.956;4.640;2022-08-19T01:50:37;18.10;99.90
20698;DHT22;10508;50.956;4.640;2022-08-19T01:53:05;18.20;99.90
20698;DHT22;10508;50.956;4.640;2022-08-19T01:55:31;18.00;99.90
20698;DHT22;10508;50.956;4.640;2022-08-19T01:58:00;18.00;99.90
20698;DHT22;10508;50.956;4.640;2022-08-19T02:00:30;18.00;99.90
20698;DHT22;10508;50.956;4.640;2022-08-19T02:02:56;18.00;99.90
20698;DHT22;10508;50.956;4.640;2022-08-19T02:05:22;18.10;99.90
20698;DHT22;10508;50.956;4.640;2022-08-19T02:07:48;18.00;99.90
20698;DHT22;10508;50.956;4.640;2022-08-19T02:10:18;18.00;99.90
20698;DHT22;10508;50.956;4.640;2022-08-19T02:12:45;18.00;99.90
20698;DHT22;10508;50.956;4.640;2022-08-19T02:15:12;17.90;99.90
20698;DHT22;10508;50.956;4.640;2022-08-19T02:17:56;18.00;99.90
20698;DHT22;10508;50.956;4.640;2022-08-19T02:20:22;17.90;99.90
20698;DHT22;10508;50.956;4.640;2022-08-19T02:22:47;18.00;99.90
20698;DHT22;10508;50.956;4.640;2022-08-19T02:25:14;17.90;99.90
20698;DHT22;10508;50.956;4.640;2022-08-19T02:27:41;17.80;99.90
20698;DHT22;10508;50.956;4.640;2022-08-19T02:30:10;17.70;99.90
20698;DHT22;10508;50.956;4.640;2022-08-19T02:32:36;17.60;99.90
20698;DHT22;10508;50.956;4.640;2022-08-19T02:35:02;17.60;99.90
20698;DHT22;10508;50.956;4.640;2022-08-19T02:37:28;17.60;99.90
20698;DHT22;10508;50.956;4.640;2022-08-19T02:40:13;17.70;99.90
20698;DHT22;10508;50.956;4.640;2022-08-19T02:42:38;17.70;99.90
20698;DHT22;10508;50.956;4.640;2022-08-19T02:45:06;17.70;99.90
20698;DHT22;10508;50.956;4.640;2022-08-19T02:47:33;17.70;99.90
20698;DHT22;10508;50.956;4.640;2022-08-19T02:50:01;17.50;99.90
20698;DHT22;10508;50.956;4.640;2022-08-19T02:52:27;17.50;99.90
20698;DHT22;10508;50.956;4.640;2022-08-19T02:54:53;17.60;99.90
20698;DHT22;10508;50.956;4.640;2022-08-19T02:57:23;17.60;99.90
20698;DHT22;10508;50.956;4.640;2022-08-19T02:59:49;17.60;99.90
20698;DHT22;10508;50.956;4.640;2022-08-19T03:02:15;17.50;99.90
20698;DHT22;10508;50.956;4.640;2022-08-19T03:04:41;17.40;99.90
20698;DHT22;10508;50.956;4.640;2022-08-19T03:07:08;17.50;99.90
20698;DHT22;10508;50.956;4.640;2022-08-19T03:09:37;17.40;99.90
20698;DHT22;10508;50.956;4.640;2022-08-19T03:12:03;17.50;99.90
20698;DHT22;10508;50.956;4.640;2022-08-19T03:14:33;17.50;99.90
20698;DHT22;10508;50.956;4.640;2022-08-19T03:16:59;17.50;99.90
20698;DHT22;10508;50.956;4.640;2022-08-19T03:19:25;17.30;99.90
20698;DHT22;10508;50.956;4.640;2022-08-19T03:21:51;17.30;99.90
20698;DHT22;10508;50.956;4.640;2022-08-19T03:24:18;17.20;99.90
20698;DHT22;10508;50.956;4.640;2022-08-19T03:26:48;17.30;99.90
20698;DHT22;10508;50.956;4.640;2022-08-19T03:29:14;17.40;99.90
20698;DHT22;10508;50.956;4.640;2022-08-19T03:31:41;17.40;99.90
20698;DHT22;10508;50.956;4.640;2022-08-19T03:34:09;17.30;99.90
20698;DHT22;10508;50.956;4.640;2022-08-19T03:36:37;17.40;99.90
20698;DHT22;10508;50.956;4.640;2022-08-19T03:39:03;17.40;99.90
20698;DHT22;10508;50.956;4.640;2022-08-19T03:41:40;17.20;99.90
20698;DHT22;10508;50.956;4.640;2022-08-19T03:44:06;17.20;99.90
20698;DHT22;10508;50.956;4.640;2022-08-19T03:46:34;17.10;99.90
20698;DHT22;10508;50.956;4.640;2022-08-19T03:49:02;17.10;99.90
20698;DHT22;10508;50.956;4.640;2022-08-19T03:51:35;17.10;99.90
20698;DHT22;10508;50.956;4.640;2022-08-19T03:54:03;17.20;99.90
20698;DHT22;10508;50.956;4.640;2022-08-19T03:56:30;17.30;99.90
20698;DHT22;10508;50.956;4.640;2022-08-19T03:58:57;17.30;99.90
20698;DHT22;10508;50.956;4.640;2022-08-19T04:01:25;17.30;99.90
20698;DHT22;10508;50.956;4.640;2022-08-19T04:03:52;17.20;99.90
20698;DHT22;10508;50.956;4.640;2022-08-19T04:06:23;17.20;99.90
20698;DHT22;10508;50.956;4.640;2022-08-19T04:08:51;17.20;99.90
20698;DHT22;10508;50.956;4.640;2022-08-19T04:11:23;17.20;99.90
20698;DHT22;10508;50.956;4.640;2022-08-19T04:13:50;17.20;99.90
20698;DHT22;10508;50.956;4.640;2022-08-19T04:16:21;17.10;99.90
20698;DHT22;10508;50.956;4.640;2022-08-19T04:18:47;17.10;99.90
20698;DHT22;10508;50.956;4.640;2022-08-19T04:21:24;17.20;99.90
20698;DHT22;10508;50.956;4.640;2022-08-19T04:23:50;17.20;99.90
20698;DHT22;10508;50.956;4.640;2022-08-19T04:26:20;17.10;99.90
20698;DHT22;10508;50.956;4.640;2022-08-19T04:28:46;17.10;99.90
20698;DHT22;10508;50.956;4.640;2022-08-19T04:31:18;17.10;99.90
20698;DHT22;10508;50.956;4.640;2022-08-19T04:33:44;17.20;99.90
20698;DHT22;10508;50.956;4.640;2022-08-19T04:36:21;17.20;99.90
20698;DHT22;10508;50.956;4.640;2022-08-19T04:38:48;17.10;99.90
20698;DHT22;10508;50.956;4.640;2022-08-19T04:41:15;17.10;99.90
20698;DHT22;10508;50.956;4.640;2022-08-19T04:44:00;17.10;99.90
20698;DHT22;10508;50.956;4.640;2022-08-19T04:46:25;17.20;99.90
20698;DHT22;10508;50.956;4.640;2022-08-19T04:48:51;17.10;99.90
20698;DHT22;10508;50.956;4.640;2022-08-19T04:51:18;17.10;99.90
20698;DHT22;10508;50.956;4.640;2022-08-19T04:53:43;17.10;99.90
20698;DHT22;10508;50.956;4.640;2022-08-19T04:56:14;17.10;99.90
20698;DHT22;10508;50.956;4.640;2022-08-19T04:58:43;17.00;99.90
20698;DHT22;10508;50.956;4.640;2022-08-19T05:01:17;17.10;99.90
20698;DHT22;10508;50.956;4.640;2022-08-19T05:03:42;17.00;99.90
20698;DHT22;10508;50.956;4.640;2022-08-19T05:06:12;17.10;99.90
20698;DHT22;10508;50.956;4.640;2022-08-19T05:08:39;17.20;99.90
20698;DHT22;10508;50.956;4.640;2022-08-19T05:11:20;17.20;99.90
20698;DHT22;10508;50.956;4.640;2022-08-19T05:13:47;17.20;99.90
20698;DHT22;10508;50.956;4.640;2022-08-19T05:16:14;17.20;99.90
20698;DHT22;10508;50.956;4.640;2022-08-19T05:18:40;17.20;99.90
20698;DHT22;10508;50.956;4.640;2022-08-19T05:21:25;17.30;99.90
20698;DHT22;10508;50.956;4.640;2022-08-19T05:24:09;17.20;99.90
20698;DHT22;10508;50.956;4.640;2022-08-19T05:26:37;17.20;99.90
20698;DHT22;10508;50.956;4.640;2022-08-19T05:29:03;17.30;99.90
20698;DHT22;10508;50.956;4.640;2022-08-19T05:31:30;17.30;99.90
20698;DHT22;10508;50.956;4.640;2022-08-19T05:33:57;17.40;99.90
20698;DHT22;10508;50.956;4.640;2022-08-19T05:36:27;17.50;99.90
20698;DHT22;10508;50.956;4.640;2022-08-19T05:38:53;17.50;99.90
20698;DHT22;10508;50.956;4.640;2022-08-19T05:41:20;17.50;99.90
20698;DHT22;10508;50.956;4.640;2022-08-19T05:43:45;17.50;99.90
20698;DHT22;10508;50.956;4.640;2022-08-19T05:46:18;17.60;99.90
20698;DHT22;10508;50.956;4.640;2022-08-19T05:48:45;17.60;99.90
20698;DHT22;10508;50.956;4.640;2022-08-19T05:51:11;17.60;99.90
20698;DHT22;10508;50.956;4.640;2022-08-19T05:53:37;17.60;99.90
20698;DHT22;10508;50.956;4.640;2022-08-19T05:56:12;17.70;99.90
20698;DHT22;10508;50.956;4.640;2022-08-19T05:58:38;17.80;99.90
20698;DHT22;10508;50.956;4.640;2022-08-19T06:01:16;17.90;99.90
20698;DHT22;10508;50.956;4.640;2022-08-19T06:03:42;18.00;99.90
20698;DHT22;10508;50.956;4.640;2022-08-19T06:06:09;18.10;99.90
20698;DHT22;10508;50.956;4.640;2022-08-19T06:08:35;18.10;99.90
20698;DHT22;10508;50.956;4.640;2022-08-19T06:13:43;18.30;99.90
20698;DHT22;10508;50.956;4.640;2022-08-19T06:16:08;18.30;99.90
20698;DHT22;10508;50.956;4.640;2022-08-19T06:18:34;18.30;99.90
20698;DHT22;10508;50.956;4.640;2022-08-19T06:20:59;18.40;99.90
20698;DHT22;10508;50.956;4.640;2022-08-19T06:23:28;18.50;99.90
20698;DHT22;10508;50.956;4.640;2022-08-19T06:25:54;18.50;99.90
20698;DHT22;10508;50.956;4.640;2022-08-19T06:28:20;18.60;99.90
20698;DHT22;10508;50.956;4.640;2022-08-19T06:30:46;18.60;99.90
20698;DHT22;10508;50.956;4.640;2022-08-19T06:33:11;18.80;99.90
20698;DHT22;10508;50.956;4.640;2022-08-19T06:35:41;18.90;99.90
20698;DHT22;10508;50.956;4.640;2022-08-19T06:38:06;18.90;99.90
20698;DHT22;10508;50.956;4.640;2022-08-19T06:40:32;18.90;99.90
20698;DHT22;10508;50.956;4.640;2022-08-19T06:42:57;19.00;99.90
20698;DHT22;10508;50.956;4.640;2022-08-19T06:45:25;19.10;99.90
20698;DHT22;10508;50.956;4.640;2022-08-19T06:47:52;19.20;99.90
20698;DHT22;10508;50.956;4.640;2022-08-19T06:50:21;19.30;99.90
20698;DHT22;10508;50.956;4.640;2022-08-19T06:52:47;19.30;99.90
20698;DHT22;10508;50.956;4.640;2022-08-19T06:55:13;19.40;99.90
20698;DHT22;10508;50.956;4.640;2022-08-19T06:57:38;19.40;99.90
20698;DHT22;10508;50.956;4.640;2022-08-19T07:00:22;19.40;99.90
20698;DHT22;10508;50.956;4.640;2022-08-19T07:02:48;19.30;99.90
20698;DHT22;10508;50.956;4.640;2022-08-19T07:05:14;19.40;99.90
20698;DHT22;10508;50.956;4.640;2022-08-19T07:07:40;19.50;99.90
20698;DHT22;10508;50.956;4.640;2022-08-19T07:10:08;19.60;99.90
20698;DHT22;10508;50.956;4.640;2022-08-19T07:12:35;19.70;99.90
20698;DHT22;10508;50.956;4.640;2022-08-19T07:15:00;19.80;99.90
20698;DHT22;10508;50.956;4.640;2022-08-19T07:17:26;20.00;99.90
20698;DHT22;10508;50.956;4.640;2022-08-19T07:19:52;20.10;99.90
20698;DHT22;10508;50.956;4.640;2022-08-19T07:22:18;20.20;99.90
20698;DHT22;10508;50.956;4.640;2022-08-19T07:24:46;20.20;99.90
20698;DHT22;10508;50.956;4.640;2022-08-19T07:27:13;20.30;99.90
20698;DHT22;10508;50.956;4.640;2022-08-19T07:29:39;20.30;99.90
20698;DHT22;10508;50.956;4.640;2022-08-19T07:32:05;20.30;99.90
20698;DHT22;10508;50.956;4.640;2022-08-19T07:34:32;20.40;99.90
20698;DHT22;10508;50.956;4.640;2022-08-19T07:37:02;20.50;99.90
20698;DHT22;10508;50.956;4.640;2022-08-19T07:39:31;20.60;99.90
20698;DHT22;10508;50.956;4.640;2022-08-19T07:42:10;20.60;99.90
20698;DHT22;10508;50.956;4.640;2022-08-19T07:44:36;20.70;99.90
20698;DHT22;10508;50.956;4.640;2022-08-19T07:47:03;20.80;99.90
20698;DHT22;10508;50.956;4.640;2022-08-19T07:49:29;20.70;99.90
20698;DHT22;10508;50.956;4.640;2022-08-19T07:51:58;20.60;99.90
20698;DHT22;10508;50.956;4.640;2022-08-19T07:54:29;20.70;99.90
20698;DHT22;10508;50.956;4.640;2022-08-19T07:56:55;20.80;99.90
20698;DHT22;10508;50.956;4.640;2022-08-19T07:59:22;20.80;99.90
20698;DHT22;10508;50.956;4.640;2022-08-19T08:01:48;20.80;99.90
20698;DHT22;10508;50.956;4.640;2022-08-19T08:04:15;20.90;99.90
20698;DHT22;10508;50.956;4.640;2022-08-19T08:07:00;21.00;99.90
20698;DHT22;10508;50.956;4.640;2022-08-19T08:09:44;21.20;99.90
20698;DHT22;10508;50.956;4.640;2022-08-19T08:12:12;21.20;99.90
20698;DHT22;10508;50.956;4.640;2022-08-19T08:14:59;21.20;99.90
20698;DHT22;10508;50.956;4.640;2022-08-19T08:17:30;21.40;99.90
20698;DHT22;10508;50.956;4.640;2022-08-19T08:19:56;21.60;99.90
20698;DHT22;10508;50.956;4.640;2022-08-19T08:22:23;21.80;99.90
20698;DHT22;10508;50.956;4.640;2022-08-19T08:25:14;21.80;99.90
20698;DHT22;10508;50.956;4.640;2022-08-19T08:27:41;21.90;99.90
20698;DHT22;10508;50.956;4.640;2022-08-19T08:30:24;21.90;99.90
20698;DHT22;10508;50.956;4.640;2022-08-19T08:32:51;21.80;99.90
20698;DHT22;10508;50.956;4.640;2022-08-19T08:35:19;21.60;99.90
20698;DHT22;10508;50.956;4.640;2022-08-19T08:37:47;21.70;99.90
20698;DHT22;10508;50.956;4.640;2022-08-19T08:40:46;21.70;99.90
20698;DHT22;10508;50.956;4.640;2022-08-19T08:43:29;21.60;99.90
20698;DHT22;10508;50.956;4.640;2022-08-19T08:46:17;21.70;99.90
20698;DHT22;10508;50.956;4.640;2022-08-19T08:49:00;21.80;99.90
20698;DHT22;10508;50.956;4.640;2022-08-19T08:51:46;21.80;99.90
20698;DHT22;10508;50.956;4.640;2022-08-19T08:54:14;21.90;99.90
20698;DHT22;10508;50.956;4.640;2022-08-19T08:56:44;22.00;99.90
20698;DHT22;10508;50.956;4.640;2022-08-19T08:59:19;22.10;99.90
20698;DHT22;10508;50.956;4.640;2022-08-19T09:01:45;22.10;99.90
20698;DHT22;10508;50.956;4.640;2022-08-19T09:04:12;22.10;99.90
20698;DHT22;10508;50.956;4.640;2022-08-19T09:09:41;22.30;99.90
20698;DHT22;10508;50.956;4.640;2022-08-19T09:12:21;22.40;99.90
20698;DHT22;10508;50.956;4.640;2022-08-19T09:14:58;22.30;99.90
20698;DHT22;10508;50.956;4.640;2022-08-19T09:17:27;22.10;99.90
20698;DHT22;10508;50.956;4.640;2022-08-19T09:22:25;22.00;99.90
20698;DHT22;10508;50.956;4.640;2022-08-19T09:24:52;22.00;99.90
20698;DHT22;10508;50.956;4.640;2022-08-19T09:27:19;22.00;99.90
20698;DHT22;10508;50.956;4.640;2022-08-19T09:29:46;22.00;99.90
20698;DHT22;10508;50.956;4.640;2022-08-19T09:32:14;22.00;99.90
20698;DHT22;10508;50.956;4.640;2022-08-19T09:34:39;22.00;99.90
20698;DHT22;10508;50.956;4.640;2022-08-19T09:37:05;22.10;99.90
20698;DHT22;10508;50.956;4.640;2022-08-19T09:39:30;22.20;99.90
20698;DHT22;10508;50.956;4.640;2022-08-19T09:41:56;22.20;99.90
20698;DHT22;10508;50.956;4.640;2022-08-19T09:44:22;22.30;99.90
20698;DHT22;10508;50.956;4.640;2022-08-19T09:46:49;22.40;99.90
20698;DHT22;10508;50.956;4.640;2022-08-19T09:49:20;22.40;99.90
20698;DHT22;10508;50.956;4.640;2022-08-19T09:51:50;22.50;99.90
20698;DHT22;10508;50.956;4.640;2022-08-19T09:54:16;22.50;99.90
20698;DHT22;10508;50.956;4.640;2022-08-19T09:56:42;22.50;99.90
20698;DHT22;10508;50.956;4.640;2022-08-19T09:59:08;22.50;99.90
20698;DHT22;10508;50.956;4.640;2022-08-19T10:01:34;22.50;99.90
20698;DHT22;10508;50.956;4.640;2022-08-19T10:04:00;22.50;99.90
20698;DHT22;10508;50.956;4.640;2022-08-19T10:06:29;22.50;99.90
20698;DHT22;10508;50.956;4.640;2022-08-19T10:08:59;22.50;99.90
20698;DHT22;10508;50.956;4.640;2022-08-19T10:11:25;22.50;99.90
20698;DHT22;10508;50.956;4.640;2022-08-19T10:13:52;22.60;99.90
20698;DHT22;10508;50.956;4.640;2022-08-19T10:16:20;22.70;99.90
20698;DHT22;10508;50.956;4.640;2022-08-19T10:18:46;22.70;99.90
20698;DHT22;10508;50.956;4.640;2022-08-19T10:21:16;22.80;99.90
20698;DHT22;10508;50.956;4.640;2022-08-19T10:23:45;22.90;99.90
20698;DHT22;10508;50.956;4.640;2022-08-19T10:26:16;22.90;99.90
20698;DHT22;10508;50.956;4.640;2022-08-19T10:28:42;23.10;99.90
20698;DHT22;10508;50.956;4.640;2022-08-19T10:31:11;23.10;99.90
20698;DHT22;10508;50.956;4.640;2022-08-19T10:33:38;23.30;99.90
20698;DHT22;10508;50.956;4.640;2022-08-19T10:36:10;23.20;99.90
20698;DHT22;10508;50.956;4.640;2022-08-19T10:38:37;23.20;99.90
20698;DHT22;10508;50.956;4.640;2022-08-19T10:41:17;23.30;99.90
20698;DHT22;10508;50.956;4.640;2022-08-19T10:43:43;23.30;99.90
20698;DHT22;10508;50.956;4.640;2022-08-19T10:46:12;23.40;99.90
20698;DHT22;10508;50.956;4.640;2022-08-19T10:48:40;23.30;99.90
20698;DHT22;10508;50.956;4.640;2022-08-19T10:51:06;23.30;99.90
20698;DHT22;10508;50.956;4.640;2022-08-19T10:53:51;23.20;99.90
20698;DHT22;10508;50.956;4.640;2022-08-19T10:56:17;23.40;99.90
20698;DHT22;10508;50.956;4.640;2022-08-19T10:59:01;23.70;99.90
20698;DHT22;10508;50.956;4.640;2022-08-19T11:01:29;23.90;99.90
20698;DHT22;10508;50.956;4.640;2022-08-19T11:03:56;24.10;99.90
20698;DHT22;10508;50.956;4.640;2022-08-19T11:06:23;24.30;99.90
20698;DHT22;10508;50.956;4.640;2022-08-19T11:08:50;24.40;99.90
20698;DHT22;10508;50.956;4.640;2022-08-19T11:11:16;24.40;99.90
20698;DHT22;10508;50.956;4.640;2022-08-19T11:13:43;24.50;99.90
20698;DHT22;10508;50.956;4.640;2022-08-19T11:16:18;24.70;99.90
20698;DHT22;10508;50.956;4.640;2022-08-19T11:18:50;24.60;99.90
20698;DHT22;10508;50.956;4.640;2022-08-19T11:21:19;24.40;99.90
20698;DHT22;10508;50.956;4.640;2022-08-19T11:23:48;24.40;99.90
20698;DHT22;10508;50.956;4.640;2022-08-19T11:26:15;24.30;99.90
20698;DHT22;10508;50.956;4.640;2022-08-19T11:28:41;24.30;99.90
20698;DHT22;10508;50.956;4.640;2022-08-19T11:31:16;24.40;99.90
20698;DHT22;10508;50.956;4.640;2022-08-19T11:33:42;24.40;99.90
20698;DHT22;10508;50.956;4.640;2022-08-19T11:36:08;24.30;99.90
20698;DHT22;10508;50.956;4.640;2022-08-19T11:38:35;24.30;99.90
20698;DHT22;10508;50.956;4.640;2022-08-19T11:41:14;24.30;99.90
20698;DHT22;10508;50.956;4.640;2022-08-19T11:43:39;24.10;99.90
20698;DHT22;10508;50.956;4.640;2022-08-19T11:46:06;24.20;99.90
20698;DHT22;10508;50.956;4.640;2022-08-19T11:48:33;24.10;99.90
20698;DHT22;10508;50.956;4.640;2022-08-19T11:50:59;23.90;99.90
20698;DHT22;10508;50.956;4.640;2022-08-19T11:53:30;23.90;99.90
20698;DHT22;10508;50.956;4.640;2022-08-19T11:55:56;23.80;99.90
20698;DHT22;10508;50.956;4.640;2022-08-19T11:58:24;23.60;99.90
20698;DHT22;10508;50.956;4.640;2022-08-19T12:00:51;23.60;99.90
20698;DHT22;10508;50.956;4.640;2022-08-19T12:03:17;23.60;99.90
20698;DHT22;10508;50.956;4.640;2022-08-19T12:05:43;23.60;99.90
20698;DHT22;10508;50.956;4.640;2022-08-19T12:08:09;23.60;99.90
20698;DHT22;10508;50.956;4.640;2022-08-19T12:10:36;23.70;99.90
20698;DHT22;10508;50.956;4.640;2022-08-19T12:13:03;23.90;99.90
20698;DHT22;10508;50.956;4.640;2022-08-19T12:15:28;24.00;99.90
20698;DHT22;10508;50.956;4.640;2022-08-19T12:17:56;24.00;99.90
20698;DHT22;10508;50.956;4.640;2022-08-19T12:20:23;24.20;99.90
20698;DHT22;10508;50.956;4.640;2022-08-19T12:22:50;24.30;99.90
20698;DHT22;10508;50.956;4.640;2022-08-19T12:25:16;24.40;99.90
20698;DHT22;10508;50.956;4.640;2022-08-19T12:27:42;24.40;99.90
20698;DHT22;10508;50.956;4.640;2022-08-19T12:30:10;24.60;99.90
20698;DHT22;10508;50.956;4.640;2022-08-19T12:32:36;24.50;99.90
20698;DHT22;10508;50.956;4.640;2022-08-19T12:35:02;24.50;99.90
20698;DHT22;10508;50.956;4.640;2022-08-19T12:37:28;24.50;99.90
20698;DHT22;10508;50.956;4.640;2022-08-19T12:39:55;24.50;99.90
20698;DHT22;10508;50.956;4.640;2022-08-19T12:42:20;24.50;99.90
20698;DHT22;10508;50.956;4.640;2022-08-19T12:44:47;24.40;99.90
20698;DHT22;10508;50.956;4.640;2022-08-19T12:47:13;24.40;99.90
20698;DHT22;10508;50.956;4.640;2022-08-19T12:49:39;24.40;99.90
20698;DHT22;10508;50.956;4.640;2022-08-19T12:52:07;24.50;99.90
20698;DHT22;10508;50.956;4.640;2022-08-19T12:54:34;24.50;99.90
20698;DHT22;10508;50.956;4.640;2022-08-19T12:57:00;24.50;99.90
20698;DHT22;10508;50.956;4.640;2022-08-19T12:59:29;24.60;99.90
20698;DHT22;10508;50.956;4.640;2022-08-19T13:01:55;24.70;99.90
20698;DHT22;10508;50.956;4.640;2022-08-19T13:04:39;25.00;99.90
20698;DHT22;10508;50.956;4.640;2022-08-19T13:07:07;25.40;99.90
20698;DHT22;10508;50.956;4.640;2022-08-19T13:09:34;25.90;99.90
20698;DHT22;10508;50.956;4.640;2022-08-19T13:11:59;26.00;99.80
20698;DHT22;10508;50.956;4.640;2022-08-19T13:14:28;25.90;99.60
20698;DHT22;10508;50.956;4.640;2022-08-19T13:16:56;25.80;99.80
20698;DHT22;10508;50.956;4.640;2022-08-19T13:19:22;25.50;99.90
20698;DHT22;10508;50.956;4.640;2022-08-19T13:21:52;25.50;99.90
20698;DHT22;10508;50.956;4.640;2022-08-19T13:24:20;25.60;99.90
20698;DHT22;10508;50.956;4.640;2022-08-19T13:26:46;25.80;98.80
20698;DHT22;10508;50.956;4.640;2022-08-19T13:29:12;25.90;99.00
20698;DHT22;10508;50.956;4.640;2022-08-19T13:31:58;25.90;98.80
20698;DHT22;10508;50.956;4.640;2022-08-19T13:34:42;25.90;98.60
20698;DHT22;10508;50.956;4.640;2022-08-19T13:37:08;25.80;98.80
20698;DHT22;10508;50.956;4.640;2022-08-19T13:39:35;25.80;98.60
20698;DHT22;10508;50.956;4.640;2022-08-19T13:42:02;25.70;98.50
20698;DHT22;10508;50.956;4.640;2022-08-19T13:44:29;25.80;98.60
20698;DHT22;10508;50.956;4.640;2022-08-19T13:47:03;26.00;98.60
20698;DHT22;10508;50.956;4.640;2022-08-19T13:49:34;26.40;98.90
20698;DHT22;10508;50.956;4.640;2022-08-19T13:52:01;26.90;97.40
20698;DHT22;10508;50.956;4.640;2022-08-19T13:54:27;26.90;97.10
20698;DHT22;10508;50.956;4.640;2022-08-19T13:56:52;26.90;97.20
20698;DHT22;10508;50.956;4.640;2022-08-19T13:59:18;27.00;97.00
20698;DHT22;10508;50.956;4.640;2022-08-19T14:01:44;27.20;96.80
20698;DHT22;10508;50.956;4.640;2022-08-19T14:04:10;27.40;96.10
20698;DHT22;10508;50.956;4.640;2022-08-19T14:06:36;27.60;95.60
20698;DHT22;10508;50.956;4.640;2022-08-19T14:09:02;27.90;94.40
20698;DHT22;10508;50.956;4.640;2022-08-19T14:11:29;27.70;94.70
20698;DHT22;10508;50.956;4.640;2022-08-19T14:13:54;27.70;95.00
20698;DHT22;10508;50.956;4.640;2022-08-19T14:16:35;27.40;94.80
20698;DHT22;10508;50.956;4.640;2022-08-19T14:19:00;27.10;95.90
20698;DHT22;10508;50.956;4.640;2022-08-19T14:21:26;27.20;96.30
20698;DHT22;10508;50.956;4.640;2022-08-19T14:23:52;27.30;95.60
20698;DHT22;10508;50.956;4.640;2022-08-19T14:26:19;27.30;96.00
20698;DHT22;10508;50.956;4.640;2022-08-19T14:28:45;27.50;95.50
20698;DHT22;10508;50.956;4.640;2022-08-19T14:31:12;27.90;93.80
20698;DHT22;10508;50.956;4.640;2022-08-19T14:33:41;28.00;94.50
20698;DHT22;10508;50.956;4.640;2022-08-19T14:36:07;27.90;94.20
20698;DHT22;10508;50.956;4.640;2022-08-19T14:38:33;27.70;94.50
20698;DHT22;10508;50.956;4.640;2022-08-19T14:41:17;27.60;94.50
20698;DHT22;10508;50.956;4.640;2022-08-19T14:43:46;27.60;94.40
20698;DHT22;10508;50.956;4.640;2022-08-19T14:46:17;27.60;94.50
20698;DHT22;10508;50.956;4.640;2022-08-19T14:48:45;28.00;94.30
20698;DHT22;10508;50.956;4.640;2022-08-19T14:51:10;27.70;94.10
20698;DHT22;10508;50.956;4.640;2022-08-19T14:53:37;27.50;94.20
20698;DHT22;10508;50.956;4.640;2022-08-19T14:56:11;27.30;95.30
20698;DHT22;10508;50.956;4.640;2022-08-19T14:58:38;26.90;96.10
20698;DHT22;10508;50.956;4.640;2022-08-19T15:01:03;26.30;96.60
20698;DHT22;10508;50.956;4.640;2022-08-19T15:03:30;26.20;97.20
20698;DHT22;10508;50.956;4.640;2022-08-19T15:05:58;26.10;98.30
20698;DHT22;10508;50.956;4.640;2022-08-19T15:08:27;25.80;98.40
20698;DHT22;10508;50.956;4.640;2022-08-19T15:10:54;25.70;98.90
20698;DHT22;10508;50.956;4.640;2022-08-19T15:13:20;25.70;99.40
20698;DHT22;10508;50.956;4.640;2022-08-19T15:15:47;25.70;99.90
20698;DHT22;10508;50.956;4.640;2022-08-19T15:18:13;25.50;99.90
20698;DHT22;10508;50.956;4.640;2022-08-19T15:20:38;25.50;99.90
20698;DHT22;10508;50.956;4.640;2022-08-19T15:23:05;25.40;99.90
20698;DHT22;10508;50.956;4.640;2022-08-19T15:25:31;25.40;99.90
20698;DHT22;10508;50.956;4.640;2022-08-19T15:27:58;25.40;99.90
20698;DHT22;10508;50.956;4.640;2022-08-19T15:30:27;25.40;99.90
20698;DHT22;10508;50.956;4.640;2022-08-19T15:32:54;25.50;99.90
20698;DHT22;10508;50.956;4.640;2022-08-19T15:35:21;25.60;99.90
20698;DHT22;10508;50.956;4.640;2022-08-19T15:38:08;25.70;99.90
20698;DHT22;10508;50.956;4.640;2022-08-19T15:40:34;25.80;99.80
20698;DHT22;10508;50.956;4.640;2022-08-19T15:43:00;25.70;99.30
20698;DHT22;10508;50.956;4.640;2022-08-19T15:45:26;25.50;99.60
20698;DHT22;10508;50.956;4.640;2022-08-19T15:48:02;25.50;99.70